Umm Slal — V7PW3 — position and weather

sailwx.info

Track history (hours):
 
Tides and Currents Weather Stations Pressure Air Temp Water Temp Dewpoint Dewpoint Depression Visibility Wind Speed Wind Dir Waves Ship Positions

Umm Slal

Last reported at 2017-May-15 18:51 UTC. Time now 2017-May-28 12:31 UTC.
Position N 27°51' W 016°23'.
Warning: this ship's position is 12 days out of date.

Length 345 m; draft 9.3 m.

Type: Ship (hazmat cat D). MMSI: 538003300.

Date/timePositionNaut miles runAvg speedWind from/ knotsBaromVisibWave heightAir tempDewpointWater temp
2017-May-15 18:51N 27°51' W 016°23'615.7
2017-May-15 18:28N 27°57' W 016°21'815.4
2017-May-15 17:58N 28°04' W 016°17'815.8
2017-May-15 17:28N 28°10' W 016°12'815.7
2017-May-15 16:56N 28°16' W 016°06'715.1
2017-May-15 16:30N 28°23' W 016°04'714.1
2017-May-15 15:59N 28°28' W 016°10'2 1.0
2017-May-15 13:53N 28°29' W 016°12'0 0.0
2017-May-15 11:25N 28°29' W 016°12'0 0.1
2017-May-15 10:58N 28°29' W 016°12'0 0.0
2017-May-15 10:19N 28°29' W 016°12'0 0.1
2017-May-15 09:53N 28°29' W 016°12'0 0.2
2017-May-15 09:29N 28°29' W 016°11'0 0.1
2017-May-15 08:56N 28°29' W 016°11'0 0.4
2017-May-15 08:27N 28°29' W 016°11'0 0.0
2017-May-15 07:51N 28°29' W 016°11'0 0.1
2017-May-15 07:24N 28°29' W 016°11'0 0.0
2017-May-15 06:52N 28°29' W 016°11'0 0.1
2017-May-15 05:26N 28°29' W 016°11'0 0.0
2017-May-15 02:31N 28°29' W 016°11'0 0.3
2017-May-15 02:16N 28°29' W 016°11'0 0.1
2017-May-15 01:52N 28°29' W 016°11'0 0.0
2017-May-14 19:15N 28°29' W 016°11'0 0.1
2017-May-14 14:59N 28°29' W 016°12'0 0.0
2017-May-14 13:54N 28°29' W 016°12'0 0.0
2017-May-14 13:22N 28°29' W 016°12'0 0.0
2017-May-14 12:55N 28°29' W 016°12'0 0.0
2017-May-14 12:19N 28°29' W 016°12'0 0.1
2017-May-14 11:56N 28°29' W 016°12'0 0.0
2017-May-14 11:26N 28°29' W 016°12'0 0.0
2017-May-14 10:53N 28°29' W 016°12'0 0.0
2017-May-14 10:24N 28°29' W 016°12'0 0.0
2017-May-14 10:00N 28°29' W 016°12'0 0.8
2017-May-14 09:30N 28°29' W 016°11'2 3.4
2017-May-14 09:00N 28°27' W 016°11'2 4.2
2017-May-14 08:30N 28°26' W 016°09'4 7.5
2017-May-14 07:59N 28°24' W 016°05'510.8
2017-May-14 07:30N 28°24' W 015°59'510.8
2017-May-14 07:00N 28°28' W 015°54'714.9
2017-May-14 06:30N 28°33' W 015°49'715.0
2017-May-14 06:00N 28°39' W 015°44'815.0
2017-May-14 05:30N 28°46' W 015°40'814.9
2017-May-14 05:00N 28°53' W 015°36'714.8
2017-May-14 04:30N 28°60' W 015°33'815.1
2017-May-14 04:00N 29°07' W 015°29'8615.1
2017-May-13 22:19N 30°29' W 015°04'615.4
2017-May-13 21:54N 30°35' W 015°01'  
2017-May-10 04:15N 51°07' W 005°55'414.6
2017-May-10 03:58N 51°10' W 005°50'714.8
2017-May-10 03:29N 51°16' W 005°43'2215.1
2017-May-10 02:01N 51°32' W 005°20'714.3
2017-May-10 01:30N 51°38' W 005°12'4 8.6
2017-May-10 01:00N 51°42' W 005°09'2 3.6
2017-May-10 00:30N 51°42' W 005°06'0 0.6
2017-May-09 23:58N 51°42' W 005°05'0 0.0
2017-May-09 23:28N 51°42' W 005°05'0 0.0
2017-May-09 22:59N 51°42' W 005°05'0 0.0
2017-May-09 22:29N 51°42' W 005°05'0 0.0
2017-May-09 21:59N 51°42' W 005°05'0 0.0
2017-May-09 21:27N 51°42' W 005°05'0 0.0
2017-May-09 21:00N 51°42' W 005°05'0 0.0
2017-May-09 20:30N 51°42' W 005°05'0 0.0
2017-May-09 19:58N 51°42' W 005°05'0 0.0
2017-May-09 19:28N 51°42' W 005°05'0 0.0
2017-May-09 18:58N 51°42' W 005°05'0 0.0
2017-May-09 18:29N 51°42' W 005°05'0 0.0
2017-May-09 17:59N 51°42' W 005°05'0 0.0
2017-May-09 17:29N 51°42' W 005°05'0 0.0
2017-May-09 17:00N 51°42' W 005°05'0 0.0
2017-May-09 16:30N 51°42' W 005°05'0 0.0
2017-May-09 16:00N 51°42' W 005°05'0 0.0
2017-May-09 15:25N 51°42' W 005°05'0 0.0
2017-May-09 14:55N 51°42' W 005°05'0 0.0
2017-May-09 14:26N 51°42' W 005°05'0 0.0
2017-May-09 13:26N 51°42' W 005°05'0 0.0
2017-May-09 12:57N 51°42' W 005°05'0 0.0
2017-May-09 12:30N 51°42' W 005°05'0 0.0
2017-May-09 11:57N 51°42' W 005°05'0 0.0
2017-May-09 11:30N 51°42' W 005°05'0 0.0
2017-May-09 10:58N 51°42' W 005°05'0 0.0
2017-May-09 10:28N 51°42' W 005°05'0 0.0
2017-May-09 09:58N 51°42' W 005°05'0 0.0
2017-May-09 09:29N 51°42' W 005°05'0 0.0
2017-May-09 08:53N 51°42' W 005°05'0 0.0
2017-May-09 08:29N 51°42' W 005°05'0 0.0
2017-May-09 08:00N 51°42' W 005°05'0 0.0
2017-May-09 07:30N 51°42' W 005°05'0 0.0
2017-May-09 06:58N 51°42' W 005°05'0 0.0
2017-May-09 06:28N 51°42' W 005°05'0 0.0
2017-May-09 05:58N 51°42' W 005°05'0 0.0
2017-May-09 05:29N 51°42' W 005°05'0 0.0
2017-May-09 04:59N 51°42' W 005°05'0 0.0
2017-May-09 04:29N 51°42' W 005°05'0 0.0
2017-May-09 03:59N 51°42' W 005°05'0 0.0
2017-May-09 03:30N 51°42' W 005°05'0 0.0
2017-May-09 03:00N 51°42' W 005°05'0 0.0
2017-May-09 02:30N 51°42' W 005°05'0 0.0
2017-May-09 01:58N 51°42' W 005°05'0 0.0
2017-May-09 01:28N 51°42' W 005°05'0 0.0
2017-May-09 00:58N 51°42' W 005°05'0 0.0
2017-May-09 00:29N 51°42' W 005°05'0 0.0
2017-May-08 23:59N 51°42' W 005°05'0 0.0
2017-May-08 23:29N 51°42' W 005°05'0 0.0
2017-May-08 23:00N 51°42' W 005°05'0 0.0
2017-May-08 22:30N 51°42' W 005°05'0 0.0
2017-May-08 22:01N 51°42' W 005°05'0 0.0
2017-May-08 21:28N 51°42' W 005°05'0 0.0
2017-May-08 20:58N 51°42' W 005°05'0 0.0
2017-May-08 20:29N 51°42' W 005°05'0 0.0
2017-May-08 19:59N 51°42' W 005°05'0 0.0
2017-May-08 19:29N 51°42' W 005°05'0 0.0
2017-May-08 19:00N 51°42' W 005°05'0 0.0
2017-May-08 18:31N 51°42' W 005°05'0 0.8
2017-May-08 18:00N 51°42' W 005°06'3 5.5
2017-May-08 17:31N 51°41' W 005°10'4 8.0
2017-May-08 17:00N 51°37' W 005°13'4 8.0
2017-May-08 16:30N 51°34' W 005°18'510.4
2017-May-08 16:01N 51°31' W 005°24'612.2
2017-May-08 15:31N 51°26' W 005°31'815.0
2017-May-08 15:01N 51°21' W 005°39'815.6
2017-May-08 14:30N 51°15' W 005°47'1515.4
2017-May-08 13:30N 51°03' W 006°03'815.1
2017-May-08 13:01N 50°58' W 006°11'815.0
2017-May-08 12:30N 50°52' W 006°19'715.0
2017-May-08 12:01N 50°46' W 006°27'712.4
2017-May-08 11:29N 50°41' W 006°33'2 3.9
2017-May-08 10:59N 50°40' W 006°35'0 0.5
2017-May-08 10:26N 50°40' W 006°35'1 1.0
2017-May-08 09:53N 50°41' W 006°36'3711.7
2017-May-08 06:46N 50°12' W 007°11'  
Track history (hours):
 
Tides and Currents Weather Stations Pressure Air Temp Water Temp Dewpoint Dewpoint Depression Visibility Wind Speed Wind Dir Waves Ship Positions

Umm Slal

Last reported at 2017-May-15 18:51 UTC. Time now 2017-May-28 12:31 UTC.
Position N 27°51' W 016°23'.
Warning: this ship's position is 12 days out of date.

Length 345 m; draft 9.3 m.

Type: Ship (hazmat cat D). MMSI: 538003300.

Date/timePositionNaut miles runAvg speedWind from/ knotsBaromVisibWave heightAir tempDewpointWater temp
2017-May-15 18:51N 27°51' W 016°23'615.7
2017-May-15 18:28N 27°57' W 016°21'815.4
2017-May-15 17:58N 28°04' W 016°17'815.8
2017-May-15 17:28N 28°10' W 016°12'815.7
2017-May-15 16:56N 28°16' W 016°06'715.1
2017-May-15 16:30N 28°23' W 016°04'714.1
2017-May-15 15:59N 28°28' W 016°10'2 1.0
2017-May-15 13:53N 28°29' W 016°12'0 0.0
2017-May-15 11:25N 28°29' W 016°12'0 0.1
2017-May-15 10:58N 28°29' W 016°12'0 0.0
2017-May-15 10:19N 28°29' W 016°12'0 0.1
2017-May-15 09:53N 28°29' W 016°12'0 0.2
2017-May-15 09:29N 28°29' W 016°11'0 0.1
2017-May-15 08:56N 28°29' W 016°11'0 0.4
2017-May-15 08:27N 28°29' W 016°11'0 0.0
2017-May-15 07:51N 28°29' W 016°11'0 0.1
2017-May-15 07:24N 28°29' W 016°11'0 0.0
2017-May-15 06:52N 28°29' W 016°11'0 0.1
2017-May-15 05:26N 28°29' W 016°11'0 0.0
2017-May-15 02:31N 28°29' W 016°11'0 0.3
2017-May-15 02:16N 28°29' W 016°11'0 0.1
2017-May-15 01:52N 28°29' W 016°11'0 0.0
2017-May-14 19:15N 28°29' W 016°11'0 0.1
2017-May-14 14:59N 28°29' W 016°12'0 0.0
2017-May-14 13:54N 28°29' W 016°12'0 0.0
2017-May-14 13:22N 28°29' W 016°12'0 0.0
2017-May-14 12:55N 28°29' W 016°12'0 0.0
2017-May-14 12:19N 28°29' W 016°12'0 0.1
2017-May-14 11:56N 28°29' W 016°12'0 0.0
2017-May-14 11:26N 28°29' W 016°12'0 0.0
2017-May-14 10:53N 28°29' W 016°12'0 0.0
2017-May-14 10:24N 28°29' W 016°12'0 0.0
2017-May-14 10:00N 28°29' W 016°12'0 0.8
2017-May-14 09:30N 28°29' W 016°11'2 3.4
2017-May-14 09:00N 28°27' W 016°11'2 4.2
2017-May-14 08:30N 28°26' W 016°09'4 7.5
2017-May-14 07:59N 28°24' W 016°05'510.8
2017-May-14 07:30N 28°24' W 015°59'510.8
2017-May-14 07:00N 28°28' W 015°54'714.9
2017-May-14 06:30N 28°33' W 015°49'715.0
2017-May-14 06:00N 28°39' W 015°44'815.0
2017-May-14 05:30N 28°46' W 015°40'814.9
2017-May-14 05:00N 28°53' W 015°36'714.8
2017-May-14 04:30N 28°60' W 015°33'815.1
2017-May-14 04:00N 29°07' W 015°29'8615.1
2017-May-13 22:19N 30°29' W 015°04'615.4
2017-May-13 21:54N 30°35' W 015°01'  
2017-May-10 04:15N 51°07' W 005°55'414.6
2017-May-10 03:58N 51°10' W 005°50'714.8
2017-May-10 03:29N 51°16' W 005°43'2215.1
2017-May-10 02:01N 51°32' W 005°20'714.3
2017-May-10 01:30N 51°38' W 005°12'4 8.6
2017-May-10 01:00N 51°42' W 005°09'2 3.6
2017-May-10 00:30N 51°42' W 005°06'0 0.6
2017-May-09 23:58N 51°42' W 005°05'0 0.0
2017-May-09 23:28N 51°42' W 005°05'0 0.0
2017-May-09 22:59N 51°42' W 005°05'0 0.0
2017-May-09 22:29N 51°42' W 005°05'0 0.0
2017-May-09 21:59N 51°42' W 005°05'0 0.0
2017-May-09 21:27N 51°42' W 005°05'0 0.0
2017-May-09 21:00N 51°42' W 005°05'0 0.0
2017-May-09 20:30N 51°42' W 005°05'0 0.0
2017-May-09 19:58N 51°42' W 005°05'0 0.0
2017-May-09 19:28N 51°42' W 005°05'0 0.0
2017-May-09 18:58N 51°42' W 005°05'0 0.0
2017-May-09 18:29N 51°42' W 005°05'0 0.0
2017-May-09 17:59N 51°42' W 005°05'0 0.0
2017-May-09 17:29N 51°42' W 005°05'0 0.0
2017-May-09 17:00N 51°42' W 005°05'0 0.0
2017-May-09 16:30N 51°42' W 005°05'0 0.0
2017-May-09 16:00N 51°42' W 005°05'0 0.0
2017-May-09 15:25N 51°42' W 005°05'0 0.0
2017-May-09 14:55N 51°42' W 005°05'0 0.0
2017-May-09 14:26N 51°42' W 005°05'0 0.0
2017-May-09 13:26N 51°42' W 005°05'0 0.0
2017-May-09 12:57N 51°42' W 005°05'0 0.0
2017-May-09 12:30N 51°42' W 005°05'0 0.0
2017-May-09 11:57N 51°42' W 005°05'0 0.0
2017-May-09 11:30N 51°42' W 005°05'0 0.0
2017-May-09 10:58N 51°42' W 005°05'0 0.0
2017-May-09 10:28N 51°42' W 005°05'0 0.0
2017-May-09 09:58N 51°42' W 005°05'0 0.0
2017-May-09 09:29N 51°42' W 005°05'0 0.0
2017-May-09 08:53N 51°42' W 005°05'0 0.0
2017-May-09 08:29N 51°42' W 005°05'0 0.0
2017-May-09 08:00N 51°42' W 005°05'0 0.0
2017-May-09 07:30N 51°42' W 005°05'0 0.0
2017-May-09 06:58N 51°42' W 005°05'0 0.0
2017-May-09 06:28N 51°42' W 005°05'0 0.0
2017-May-09 05:58N 51°42' W 005°05'0 0.0
2017-May-09 05:29N 51°42' W 005°05'0 0.0
2017-May-09 04:59N 51°42' W 005°05'0 0.0
2017-May-09 04:29N 51°42' W 005°05'0 0.0
2017-May-09 03:59N 51°42' W 005°05'0 0.0
2017-May-09 03:30N 51°42' W 005°05'0 0.0
2017-May-09 03:00N 51°42' W 005°05'0 0.0
2017-May-09 02:30N 51°42' W 005°05'0 0.0
2017-May-09 01:58N 51°42' W 005°05'0 0.0
2017-May-09 01:28N 51°42' W 005°05'0 0.0
2017-May-09 00:58N 51°42' W 005°05'0 0.0
2017-May-09 00:29N 51°42' W 005°05'0 0.0
2017-May-08 23:59N 51°42' W 005°05'0 0.0
2017-May-08 23:29N 51°42' W 005°05'0 0.0
2017-May-08 23:00N 51°42' W 005°05'0 0.0
2017-May-08 22:30N 51°42' W 005°05'0 0.0
2017-May-08 22:01N 51°42' W 005°05'0 0.0
2017-May-08 21:28N 51°42' W 005°05'0 0.0
2017-May-08 20:58N 51°42' W 005°05'0 0.0
2017-May-08 20:29N 51°42' W 005°05'0 0.0
2017-May-08 19:59N 51°42' W 005°05'0 0.0
2017-May-08 19:29N 51°42' W 005°05'0 0.0
2017-May-08 19:00N 51°42' W 005°05'0 0.0
2017-May-08 18:31N 51°42' W 005°05'0 0.8
2017-May-08 18:00N 51°42' W 005°06'3 5.5
2017-May-08 17:31N 51°41' W 005°10'4 8.0
2017-May-08 17:00N 51°37' W 005°13'4 8.0
2017-May-08 16:30N 51°34' W 005°18'510.4
2017-May-08 16:01N 51°31' W 005°24'612.2
2017-May-08 15:31N 51°26' W 005°31'815.0
2017-May-08 15:01N 51°21' W 005°39'815.6
2017-May-08 14:30N 51°15' W 005°47'1515.4
2017-May-08 13:30N 51°03' W 006°03'815.1
2017-May-08 13:01N 50°58' W 006°11'815.0
2017-May-08 12:30N 50°52' W 006°19'715.0
2017-May-08 12:01N 50°46' W 006°27'712.4
2017-May-08 11:29N 50°41' W 006°33'2 3.9
2017-May-08 10:59N 50°40' W 006°35'0 0.5
2017-May-08 10:26N 50°40' W 006°35'1 1.0
2017-May-08 09:53N 50°41' W 006°36'3711.7
2017-May-08 06:46N 50°12' W 007°11'  

Dump ship's entire track history